createdAt,value
2023-02-02T00:01:30.131Z,2.13
2023-02-02T00:03:57.878Z,1.92
2023-02-02T00:06:27.495Z,1.73
2023-02-02T00:08:57.849Z,1.47
2023-02-02T00:11:25.163Z,1.58
2023-02-02T00:13:52.052Z,1.87
2023-02-02T00:16:31.236Z,2.12
2023-02-02T00:19:08.456Z,2.02
2023-02-02T00:21:35.747Z,2.19
2023-02-02T00:24:02.731Z,1.95
2023-02-02T00:26:29.812Z,2.08
2023-02-02T00:28:56.881Z,1.99
2023-02-02T00:31:24.226Z,2.30
2023-02-02T00:33:51.741Z,2.43
2023-02-02T00:36:20.081Z,2.10
2023-02-02T00:38:48.220Z,2.34
2023-02-02T00:41:15.594Z,2.06
2023-02-02T00:43:42.765Z,2.10
2023-02-02T00:46:19.355Z,2.23
2023-02-02T00:48:46.138Z,2.05
2023-02-02T00:51:13.035Z,1.75
2023-02-02T00:53:39.951Z,1.61
2023-02-02T00:56:07.203Z,1.73
2023-02-02T00:58:34.230Z,1.75
2023-02-02T01:01:01.728Z,1.86
2023-02-02T01:03:28.708Z,1.57
2023-02-02T01:05:55.635Z,1.43
2023-02-02T01:08:22.734Z,1.35
2023-02-02T01:10:49.577Z,1.65
2023-02-02T01:13:16.496Z,1.46
2023-02-02T01:15:43.390Z,1.68
2023-02-02T01:18:10.723Z,1.41
2023-02-02T01:20:38.305Z,1.55
2023-02-02T01:23:05.244Z,1.43
2023-02-02T01:25:34.871Z,1.42
2023-02-02T01:28:01.788Z,1.63
2023-02-02T01:30:28.675Z,1.79
2023-02-02T01:32:55.619Z,1.68
2023-02-02T01:35:23.066Z,1.70
2023-02-02T01:37:50.936Z,1.56
2023-02-02T01:40:17.895Z,1.69
2023-02-02T01:42:45.218Z,1.65
2023-02-02T01:45:30.214Z,1.79
2023-02-02T01:48:00.510Z,1.71
2023-02-02T01:50:33.173Z,1.40
2023-02-02T01:53:03.702Z,1.43
2023-02-02T01:55:34.866Z,1.70
2023-02-02T01:58:22.942Z,1.50
2023-02-02T02:00:50.419Z,1.36
2023-02-02T02:03:22.346Z,1.31
2023-02-02T02:05:54.231Z,1.33
2023-02-02T02:08:29.292Z,1.14
2023-02-02T02:10:57.706Z,0.96
2023-02-02T02:13:47.459Z,0.94
2023-02-02T02:16:32.885Z,0.65
2023-02-02T02:19:58.154Z,0.49
2023-02-02T02:23:08.607Z,0.46
2023-02-02T02:26:03.834Z,0.59
2023-02-02T02:28:39.166Z,0.93
2023-02-02T02:31:24.545Z,0.94
2023-02-02T02:33:57.352Z,0.74
2023-02-02T02:36:43.704Z,0.80
2023-02-02T02:39:25.512Z,0.94
2023-02-02T02:41:58.739Z,1.05
2023-02-02T02:44:28.643Z,0.94
2023-02-02T02:46:55.666Z,0.86
2023-02-02T02:49:22.709Z,0.59
2023-02-02T02:51:55.205Z,0.46
2023-02-02T02:54:43.293Z,0.53
2023-02-02T02:57:15.966Z,0.64
2023-02-02T02:59:57.292Z,0.74
2023-02-02T03:02:24.620Z,0.61
2023-02-02T03:04:57.155Z,0.22
2023-02-02T03:07:27.184Z,0.19
2023-02-02T03:09:57.019Z,0.33
2023-02-02T03:12:24.387Z,0.21
2023-02-02T03:14:51.360Z,0.16
2023-02-02T03:17:18.269Z,0.09
2023-02-02T03:19:45.212Z,0.12
2023-02-02T03:22:12.179Z,0.07
2023-02-02T03:24:39.159Z,0.16
2023-02-02T03:27:06.090Z,0.24
2023-02-02T03:29:33.194Z,0.25
2023-02-02T03:32:00.235Z,0.38
2023-02-02T03:34:27.156Z,0.31
2023-02-02T03:36:54.096Z,0.00
2023-02-02T03:39:20.940Z,0.06
2023-02-02T03:41:47.875Z,0.30
2023-02-02T03:44:15.003Z,0.20
2023-02-02T03:46:42.037Z,0.16
2023-02-02T03:49:08.996Z,0.20
2023-02-02T03:51:35.861Z,0.25
2023-02-02T03:54:02.762Z,0.39
2023-02-02T03:56:29.644Z,0.43
2023-02-02T03:58:56.531Z,0.38
2023-02-02T04:01:29.091Z,0.41
2023-02-02T04:03:57.354Z,0.33
2023-02-02T04:06:25.425Z,0.23
2023-02-02T04:08:52.875Z,0.30
2023-02-02T04:11:19.904Z,0.38
2023-02-02T04:13:46.772Z,0.31
2023-02-02T04:16:13.771Z,0.52
2023-02-02T04:18:41.192Z,0.36
2023-02-02T04:21:08.961Z,0.32
2023-02-02T04:23:36.170Z,0.32
2023-02-02T04:26:03.654Z,0.36
2023-02-02T04:28:30.902Z,0.43
2023-02-02T04:30:58.466Z,0.23
2023-02-02T04:33:27.604Z,0.04
2023-02-02T04:35:55.226Z,0.10
2023-02-02T04:38:22.377Z,0.12
2023-02-02T04:40:49.482Z,0.27
2023-02-02T04:43:16.432Z,0.30
2023-02-02T04:45:43.419Z,0.49
2023-02-02T04:48:10.690Z,0.18
2023-02-02T04:50:37.981Z,0.02
2023-02-02T04:53:05.693Z,-0.04
2023-02-02T04:55:36.529Z,-0.06
2023-02-02T04:58:03.647Z,-0.06
2023-02-02T05:00:30.581Z,-0.08
2023-02-02T05:02:57.505Z,-0.21
2023-02-02T05:05:24.708Z,-0.22
2023-02-02T05:07:51.936Z,-0.21
2023-02-02T05:10:18.983Z,-0.08
2023-02-02T05:12:45.847Z,-0.07
2023-02-02T05:15:12.779Z,0.07
2023-02-02T05:17:39.673Z,-0.01
2023-02-02T05:20:06.952Z,0.02
2023-02-02T05:22:35.258Z,0.11
2023-02-02T05:25:02.458Z,0.10
2023-02-02T05:27:29.464Z,0.23
2023-02-02T05:29:56.455Z,0.21
2023-02-02T05:32:23.610Z,0.26
2023-02-02T05:34:50.640Z,0.28
2023-02-02T05:37:17.637Z,0.30
2023-02-02T05:39:44.625Z,0.41
2023-02-02T05:42:11.611Z,0.54
2023-02-02T05:44:38.673Z,0.65
2023-02-02T05:47:05.738Z,0.81
2023-02-02T05:49:32.683Z,0.74
2023-02-02T05:52:00.108Z,0.80
2023-02-02T05:54:27.096Z,0.96
2023-02-02T05:56:55.970Z,0.98
2023-02-02T05:59:23.495Z,1.07
2023-02-02T06:01:50.499Z,1.17
2023-02-02T06:04:17.625Z,1.09
2023-02-02T06:06:44.718Z,0.93
2023-02-02T06:09:11.713Z,0.89
2023-02-02T06:11:39.644Z,0.96
2023-02-02T06:14:06.955Z,1.09
2023-02-02T06:16:33.883Z,1.35
2023-02-02T06:19:00.846Z,1.10
2023-02-02T06:21:31.183Z,1.02
2023-02-02T06:23:58.760Z,1.12
2023-02-02T06:26:26.681Z,1.32
2023-02-02T06:28:54.810Z,1.42
2023-02-02T06:31:22.670Z,1.31
2023-02-02T06:33:54.804Z,1.28
2023-02-02T06:36:22.314Z,1.18
2023-02-02T06:38:50.696Z,1.14
2023-02-02T06:41:18.463Z,1.11
2023-02-02T06:43:45.468Z,1.10
2023-02-02T06:46:12.845Z,1.15
2023-02-02T06:48:40.489Z,1.08
2023-02-02T06:51:07.698Z,1.14
2023-02-02T06:53:35.577Z,1.18
2023-02-02T06:56:05.847Z,1.34
2023-02-02T06:58:33.769Z,1.39
2023-02-02T07:01:10.106Z,1.51
2023-02-02T07:03:37.631Z,1.47
2023-02-02T07:06:12.397Z,1.55
2023-02-02T07:08:39.456Z,1.68
2023-02-02T07:11:13.999Z,1.95
2023-02-02T07:13:42.779Z,2.06
2023-02-02T07:16:09.849Z,2.12
2023-02-02T07:18:39.730Z,2.19
2023-02-02T07:21:07.285Z,2.21
2023-02-02T07:23:34.520Z,2.23
2023-02-02T07:26:12.302Z,2.46
2023-02-02T07:28:39.272Z,2.39
2023-02-02T07:31:26.277Z,2.48
2023-02-02T07:33:53.805Z,2.39
2023-02-02T07:36:22.128Z,2.35
2023-02-02T07:38:51.447Z,2.36
2023-02-02T07:41:18.457Z,2.46
2023-02-02T07:43:49.116Z,2.65
2023-02-02T07:46:17.647Z,2.68
2023-02-02T07:48:44.902Z,2.72
2023-02-02T07:51:14.822Z,2.80
2023-02-02T07:53:46.138Z,2.91
2023-02-02T07:56:15.813Z,2.99
2023-02-02T07:58:43.494Z,3.21
2023-02-02T08:01:12.508Z,3.32
2023-02-02T08:03:40.160Z,3.40
2023-02-02T08:06:12.752Z,3.33
2023-02-02T08:08:40.017Z,3.47
2023-02-02T08:11:10.519Z,3.71
2023-02-02T08:13:38.185Z,4.12
2023-02-02T08:16:07.002Z,4.05
2023-02-02T08:18:35.203Z,4.11
2023-02-02T08:21:03.842Z,4.36
2023-02-02T08:23:31.548Z,3.95
2023-02-02T08:26:14.423Z,4.32
2023-02-02T08:28:42.670Z,4.57
2023-02-02T08:31:16.283Z,4.50
2023-02-02T08:33:44.051Z,4.72
2023-02-02T08:36:19.077Z,4.68
2023-02-02T08:38:46.683Z,4.77
2023-02-02T08:41:16.538Z,4.96
2023-02-02T08:43:44.193Z,5.18
2023-02-02T08:46:14.611Z,5.43
2023-02-02T08:48:42.352Z,5.19
2023-02-02T08:51:12.448Z,5.15
2023-02-02T08:53:39.457Z,5.15
2023-02-02T08:56:26.846Z,5.59
2023-02-02T08:58:56.372Z,5.53
2023-02-02T09:01:28.168Z,5.57
2023-02-02T09:04:06.797Z,5.41
2023-02-02T09:06:38.513Z,5.23
2023-02-02T09:09:08.415Z,5.47
2023-02-02T09:11:36.093Z,5.51
2023-02-02T09:14:03.885Z,5.31
2023-02-02T09:16:30.931Z,5.32
2023-02-02T09:18:58.059Z,5.28
2023-02-02T09:21:25.684Z,5.09
2023-02-02T09:23:54.723Z,5.03
2023-02-02T09:26:27.392Z,5.24
2023-02-02T09:28:57.014Z,5.08
2023-02-02T09:31:25.101Z,5.31
2023-02-02T09:33:52.341Z,5.30
2023-02-02T09:36:21.775Z,5.19
2023-02-02T09:38:50.512Z,5.12
2023-02-02T09:41:38.614Z,5.42
2023-02-02T10:18:06.050Z,4.99
2023-02-02T10:20:47.806Z,5.49
2023-02-02T10:23:35.779Z,5.99
2023-02-02T10:26:16.572Z,5.69
2023-02-02T10:28:45.608Z,5.60
2023-02-02T10:31:28.670Z,5.77
2023-02-02T10:34:44.001Z,5.75
2023-02-02T10:37:48.077Z,5.63
2023-02-02T10:40:26.835Z,5.40
2023-02-02T10:43:36.835Z,5.25
2023-02-02T10:46:06.127Z,5.22
2023-02-02T10:48:37.814Z,5.50
2023-02-02T10:51:18.601Z,6.07
2023-02-02T10:53:52.502Z,6.54
2023-02-02T10:56:36.540Z,6.22
2023-02-02T10:59:10.131Z,6.23
2023-02-02T11:01:37.277Z,6.55
2023-02-02T11:04:23.041Z,6.94
2023-02-02T11:06:50.129Z,7.17
2023-02-02T11:09:33.146Z,7.32
2023-02-02T11:12:07.272Z,6.93
2023-02-02T11:14:46.131Z,6.55
2023-02-02T11:17:23.506Z,6.37
2023-02-02T11:19:51.553Z,6.48
2023-02-02T11:22:35.205Z,6.58
2023-02-02T11:25:06.002Z,6.61
2023-02-02T11:27:38.931Z,6.70
2023-02-02T11:30:34.639Z,6.59
2023-02-02T11:33:39.988Z,6.98
2023-02-02T11:36:20.440Z,6.99
2023-02-02T11:38:47.439Z,6.69
2023-02-02T11:41:15.568Z,6.47
2023-02-02T11:43:52.694Z,6.23
2023-02-02T11:46:19.889Z,6.24
2023-02-02T11:48:59.673Z,6.52
2023-02-02T11:51:28.017Z,6.73
2023-02-02T11:54:15.769Z,6.66
2023-02-02T11:56:48.448Z,6.48
2023-02-02T11:59:38.006Z,6.21
2023-02-02T12:02:20.089Z,6.42
2023-02-02T12:04:53.220Z,6.26
2023-02-02T12:07:32.087Z,6.42
2023-02-02T12:10:14.027Z,6.13
2023-02-02T12:12:52.626Z,6.24
2023-02-02T12:15:40.490Z,6.10
2023-02-02T12:18:29.214Z,6.10
2023-02-02T12:21:05.905Z,6.13
2023-02-02T12:23:32.810Z,6.14
2023-02-02T12:26:37.352Z,6.23
2023-02-02T12:29:31.027Z,6.25
2023-02-02T12:32:30.255Z,6.36
2023-02-02T12:35:02.877Z,6.39
2023-02-02T12:37:54.236Z,6.38
2023-02-02T12:40:39.290Z,6.23
2023-02-02T12:43:14.897Z,6.16
2023-02-02T12:45:59.570Z,6.26
2023-02-02T12:48:47.729Z,6.24
2023-02-02T12:51:45.671Z,6.34
2023-02-02T12:54:39.377Z,6.43
2023-02-02T12:57:24.789Z,6.70
2023-02-02T13:00:10.033Z,6.60
2023-02-02T13:02:52.376Z,6.42
2023-02-02T13:05:37.742Z,6.34
2023-02-02T13:08:11.883Z,6.45
2023-02-02T13:10:46.829Z,6.64
2023-02-02T13:13:18.462Z,6.67
2023-02-02T13:15:53.073Z,6.66
2023-02-02T13:18:26.147Z,6.74
2023-02-02T13:20:59.255Z,6.42
2023-02-02T13:23:31.203Z,6.53
2023-02-02T13:26:15.591Z,6.55
2023-02-02T13:28:50.434Z,6.60
2023-02-02T13:31:26.030Z,6.58
2023-02-02T13:34:11.935Z,6.65
2023-02-02T13:36:44.060Z,6.45
2023-02-02T13:39:22.491Z,6.45
2023-02-02T13:41:52.033Z,6.34
2023-02-02T13:44:25.644Z,6.35
2023-02-02T13:47:45.070Z,6.33
2023-02-02T13:50:17.297Z,6.30
2023-02-02T13:53:10.072Z,6.43
2023-02-02T13:55:55.438Z,6.52
2023-02-02T13:58:40.862Z,6.65
2023-02-02T14:01:11.947Z,6.70
2023-02-02T14:03:42.433Z,6.63
2023-02-02T14:06:21.265Z,6.58
2023-02-02T14:08:51.305Z,6.56
2023-02-02T14:11:34.696Z,6.51
2023-02-02T14:14:32.335Z,6.58
2023-02-02T14:16:59.750Z,6.59
2023-02-02T14:19:29.532Z,6.54
2023-02-02T14:22:14.566Z,6.43
2023-02-02T14:24:54.355Z,6.48
2023-02-02T14:27:30.540Z,6.62
2023-02-02T14:30:01.033Z,6.65
2023-02-02T14:32:32.476Z,6.72
2023-02-02T14:35:08.707Z,6.37
2023-02-02T14:38:06.072Z,6.14
2023-02-02T14:40:48.818Z,6.07
2023-02-02T14:43:49.846Z,5.72
2023-02-02T14:46:35.821Z,4.83
2023-02-02T14:49:02.684Z,4.02
2023-02-02T14:51:33.149Z,3.76
2023-02-02T14:54:03.701Z,2.93
2023-02-02T14:56:50.138Z,2.32
2023-02-02T14:59:24.972Z,1.98
2023-02-02T15:02:30.636Z,1.70
2023-02-02T15:05:39.098Z,1.50
2023-02-02T15:08:13.925Z,1.51
2023-02-02T15:10:54.054Z,1.66
2023-02-02T15:13:28.689Z,1.76
2023-02-02T15:16:19.908Z,1.91
2023-02-02T15:18:57.858Z,2.03
2023-02-02T15:21:26.717Z,2.05
2023-02-02T15:23:54.581Z,2.19
2023-02-02T15:26:27.658Z,2.29
2023-02-02T15:29:01.659Z,2.32
2023-02-02T15:31:43.163Z,2.33
2023-02-02T15:34:54.688Z,2.24
2023-02-02T15:37:30.742Z,2.10
2023-02-02T15:40:02.323Z,2.27
2023-02-02T15:42:55.268Z,2.36
2023-02-02T15:45:28.256Z,2.29
2023-02-02T15:47:57.942Z,2.28
2023-02-02T15:50:27.120Z,2.30
2023-02-02T15:52:55.497Z,2.42
2023-02-02T15:55:25.617Z,2.71
2023-02-02T15:57:54.414Z,2.75
2023-02-02T16:00:27.233Z,3.07
2023-02-02T16:03:23.587Z,2.83
2023-02-02T16:05:53.429Z,2.40
2023-02-02T16:08:26.369Z,2.45
2023-02-02T16:11:05.560Z,2.58
2023-02-02T16:13:33.776Z,2.70
2023-02-02T16:16:02.951Z,2.72
2023-02-02T16:18:30.857Z,2.63
2023-02-02T16:21:00.833Z,2.58
2023-02-02T16:23:38.506Z,2.56
2023-02-02T16:26:07.021Z,2.55
2023-02-02T16:28:35.044Z,2.66
2023-02-02T16:31:02.948Z,2.71
2023-02-02T16:33:34.237Z,2.68
2023-02-02T16:36:04.342Z,2.62
2023-02-02T16:38:37.535Z,2.52
2023-02-02T16:41:13.298Z,2.68
2023-02-02T16:43:43.670Z,2.65
2023-02-02T16:46:18.021Z,2.65
2023-02-02T16:48:55.696Z,2.68
2023-02-02T16:51:30.748Z,2.51
2023-02-02T16:54:12.176Z,2.33
2023-02-02T16:56:42.239Z,2.56
2023-02-02T16:59:33.687Z,2.33
2023-02-02T17:02:24.551Z,2.44
2023-02-02T17:05:10.789Z,2.31
2023-02-02T17:07:38.602Z,2.31
2023-02-02T17:10:13.830Z,2.19
2023-02-02T17:12:40.805Z,2.12
2023-02-02T17:15:16.627Z,2.18
2023-02-02T17:17:44.769Z,2.18
2023-02-02T17:20:13.169Z,2.01
2023-02-02T17:22:46.870Z,1.89
2023-02-02T17:25:29.553Z,1.78
2023-02-02T17:27:58.677Z,1.73
2023-02-02T17:30:26.623Z,1.58
2023-02-02T17:32:53.537Z,1.48
2023-02-02T17:35:27.167Z,1.29
2023-02-02T17:37:55.318Z,1.24
2023-02-02T17:40:24.010Z,1.22
2023-02-02T17:42:53.219Z,1.29
2023-02-02T17:45:23.709Z,1.29
2023-02-02T17:47:51.777Z,1.22
2023-02-02T17:50:19.160Z,1.13
2023-02-02T17:52:46.290Z,1.05
2023-02-02T17:55:25.007Z,0.98
2023-02-02T17:57:53.376Z,1.11
2023-02-02T18:00:23.801Z,1.08
2023-02-02T18:02:56.580Z,1.05
2023-02-02T18:05:24.127Z,0.91
2023-02-02T18:07:51.604Z,0.83
2023-02-02T18:10:19.528Z,0.82
2023-02-02T18:12:46.455Z,0.83
2023-02-02T18:15:14.857Z,0.80
2023-02-02T18:17:42.883Z,0.77
2023-02-02T18:20:13.490Z,0.62
2023-02-02T18:22:40.384Z,0.54
2023-02-02T18:25:07.639Z,0.47
2023-02-02T18:27:34.732Z,0.52
2023-02-02T18:30:01.709Z,0.46
2023-02-02T18:32:28.910Z,0.47
2023-02-02T18:34:57.531Z,0.40
2023-02-02T18:37:25.942Z,0.40
2023-02-02T18:39:54.209Z,0.37
2023-02-02T18:42:21.309Z,0.39
2023-02-02T18:44:48.302Z,0.39
2023-02-02T18:47:15.362Z,0.44
2023-02-02T18:49:42.307Z,0.34
2023-02-02T18:52:09.217Z,0.33
2023-02-02T18:54:36.551Z,0.42
2023-02-02T18:57:03.518Z,0.56
2023-02-02T18:59:32.361Z,0.73
2023-02-02T19:01:59.327Z,0.78
2023-02-02T19:04:26.836Z,0.77
2023-02-02T19:07:12.260Z,0.76
2023-02-02T19:09:39.351Z,0.63
2023-02-02T19:12:13.803Z,0.68
2023-02-02T19:14:42.532Z,0.60
2023-02-02T19:17:09.490Z,0.64
2023-02-02T19:19:37.273Z,0.65
2023-02-02T19:22:23.504Z,0.79
2023-02-02T19:24:50.937Z,0.75
2023-02-02T19:27:23.955Z,0.79
2023-02-02T19:29:55.108Z,0.77
2023-02-02T19:32:27.113Z,0.90
2023-02-02T19:35:01.571Z,0.85
2023-02-02T19:37:33.472Z,0.63
2023-02-02T19:40:09.525Z,0.73
2023-02-02T19:42:44.133Z,0.75
2023-02-02T19:45:31.863Z,0.93
2023-02-02T19:48:13.015Z,0.93
2023-02-02T19:50:43.450Z,0.91
2023-02-02T19:53:23.325Z,0.86
2023-02-02T19:55:51.637Z,0.87
2023-02-02T19:58:28.972Z,0.85
2023-02-02T20:00:58.119Z,0.93
2023-02-02T20:03:28.718Z,1.05
2023-02-02T20:05:58.034Z,0.90
2023-02-02T20:08:36.134Z,0.75
2023-02-02T20:11:39.231Z,0.66
2023-02-02T20:14:29.529Z,0.87
2023-02-02T20:17:06.791Z,0.81
2023-02-02T20:19:37.031Z,0.70
2023-02-02T20:22:15.904Z,0.50
2023-02-02T20:24:42.930Z,0.33
2023-02-02T20:27:23.316Z,0.28
2023-02-02T20:29:51.991Z,0.33
2023-02-02T20:32:22.928Z,0.35
2023-02-02T20:34:50.757Z,0.27
2023-02-02T20:37:31.835Z,0.18
2023-02-02T20:40:01.369Z,0.17
2023-02-02T20:42:29.038Z,0.22
2023-02-02T20:44:57.915Z,0.33
2023-02-02T20:47:25.036Z,0.35
2023-02-02T20:49:51.937Z,0.23
2023-02-02T20:52:24.073Z,0.13
2023-02-02T20:54:52.220Z,0.10
2023-02-02T20:57:19.312Z,0.19
2023-02-02T20:59:46.189Z,0.18
2023-02-02T21:02:19.317Z,0.21
2023-02-02T21:04:48.032Z,0.11
2023-02-02T21:07:17.147Z,0.08
2023-02-02T21:09:45.080Z,0.04
2023-02-02T21:12:12.362Z,0.04
2023-02-02T21:14:39.796Z,0.09
2023-02-02T21:17:14.836Z,0.11
2023-02-02T21:19:42.851Z,0.00
2023-02-02T21:22:10.159Z,-0.06
2023-02-02T21:24:37.178Z,-0.14
2023-02-02T21:27:04.769Z,-0.12
2023-02-02T21:29:32.700Z,-0.07
2023-02-02T21:32:02.756Z,-0.02
2023-02-02T21:34:31.297Z,-0.05
2023-02-02T21:36:58.994Z,-0.07
2023-02-02T21:39:36.853Z,-0.13
2023-02-02T21:42:10.077Z,-0.12
2023-02-02T21:44:43.120Z,-0.01
2023-02-02T21:47:49.393Z,0.00
2023-02-02T21:50:19.363Z,-0.08
2023-02-02T21:52:46.802Z,-0.14
2023-02-02T21:55:32.716Z,-0.16
2023-02-02T21:58:01.627Z,-0.12
2023-02-02T22:00:32.818Z,-0.02
2023-02-02T22:03:00.368Z,-0.01
2023-02-02T22:05:34.063Z,0.01
2023-02-02T22:08:03.335Z,-0.12
2023-02-02T22:10:37.141Z,-0.16
2023-02-02T22:13:21.798Z,-0.12
2023-02-02T22:15:51.875Z,-0.07
2023-02-02T22:18:22.013Z,-0.03
2023-02-02T22:20:50.893Z,-0.08
2023-02-02T22:23:20.813Z,-0.19
2023-02-02T22:25:50.452Z,-0.18
2023-02-02T22:28:36.308Z,-0.20
2023-02-02T22:31:04.401Z,-0.10
2023-02-02T22:33:31.488Z,-0.15
2023-02-02T22:35:58.463Z,-0.08
2023-02-02T22:38:25.960Z,-0.22
2023-02-02T22:40:53.634Z,-0.22
2023-02-02T22:43:21.716Z,-0.18
2023-02-02T22:45:49.233Z,-0.20
2023-02-02T22:48:16.813Z,-0.22
2023-02-02T22:50:43.978Z,-0.29
2023-02-02T22:53:11.048Z,-0.33
2023-02-02T22:55:38.055Z,-0.42
2023-02-02T22:58:05.029Z,-0.35
2023-02-02T23:00:36.159Z,-0.31
2023-02-02T23:03:03.264Z,-0.40
2023-02-02T23:05:30.278Z,-0.33
2023-02-02T23:07:57.206Z,-0.44
2023-02-02T23:10:27.743Z,-0.48
2023-02-02T23:12:56.071Z,-0.47
2023-02-02T23:15:23.028Z,-0.45
2023-02-02T23:17:50.333Z,-0.41
2023-02-02T23:20:17.719Z,-0.49
2023-02-02T23:22:44.694Z,-0.60
2023-02-02T23:25:13.007Z,-0.65
2023-02-02T23:27:40.394Z,-0.70
2023-02-02T23:30:09.602Z,-0.66
2023-02-02T23:32:36.570Z,-0.66
2023-02-02T23:35:04.766Z,-0.62
2023-02-02T23:37:31.805Z,-0.71
2023-02-02T23:39:58.776Z,-0.73
2023-02-02T23:42:25.950Z,-0.82
2023-02-02T23:44:53.126Z,-0.78
2023-02-02T23:47:20.165Z,-0.80
2023-02-02T23:49:47.353Z,-0.75
2023-02-02T23:52:14.911Z,-0.83
2023-02-02T23:54:42.876Z,-0.89
2023-02-02T23:57:10.386Z,-0.89
2023-02-02T23:59:37.372Z,-0.92
